createdAt,value
2017-06-13T00:00:04.626Z,15.4
2017-06-13T00:00:17.026Z,15.45
2017-06-13T00:00:30.454Z,15.4
2017-06-13T00:00:44.009Z,15.38
2017-06-13T00:00:57.540Z,15.43
2017-06-13T00:01:11.048Z,15.51
2017-06-13T00:01:24.555Z,15.43
2017-06-13T00:01:38.042Z,15.37
2017-06-13T00:01:51.124Z,15.27
2017-06-13T00:02:04.661Z,15.38
2017-06-13T00:02:18.214Z,15.33
2017-06-13T00:02:31.728Z,15.33
2017-06-13T00:02:45.303Z,15.31
2017-06-13T00:02:58.964Z,15.4
2017-06-13T00:03:12.434Z,15.38
2017-06-13T00:03:25.965Z,15.33
2017-06-13T00:03:39.497Z,15.37
2017-06-13T00:03:52.966Z,15.31
2017-06-13T00:04:06.411Z,15.37
2017-06-13T00:04:19.981Z,15.3
2017-06-13T00:04:33.416Z,15.27
2017-06-13T00:04:46.933Z,15.3
2017-06-13T00:05:00.393Z,15.26
2017-06-13T00:05:13.925Z,15.25
2017-06-13T00:05:27.447Z,15.2
2017-06-13T00:05:40.972Z,15.26
2017-06-13T00:05:54.442Z,15.25
2017-06-13T00:06:07.355Z,15.25
2017-06-13T00:06:20.977Z,15.27
2017-06-13T00:06:34.502Z,15.34
2017-06-13T00:06:47.499Z,15.26
2017-06-13T00:07:00.999Z,15.31
2017-06-13T00:07:14.461Z,15.27
2017-06-13T00:07:27.950Z,15.19
2017-06-13T00:07:41.456Z,15.25
2017-06-13T00:07:55.003Z,15.22
2017-06-13T00:08:08.752Z,15.25
2017-06-13T00:08:22.191Z,15.27
2017-06-13T00:08:35.665Z,15.31
2017-06-13T00:08:49.145Z,15.22
2017-06-13T00:09:02.615Z,15.12
2017-06-13T00:09:16.106Z,15.19
2017-06-13T00:09:29.623Z,15.26
2017-06-13T00:09:42.139Z,15.13
2017-06-13T00:09:55.625Z,15.2
2017-06-13T00:10:08.619Z,15.16
2017-06-13T00:10:22.081Z,15.22
2017-06-13T00:10:35.620Z,15.15
2017-06-13T00:10:48.570Z,15.13
2017-06-13T00:11:02.080Z,15.13
2017-06-13T00:11:15.070Z,15.2
2017-06-13T00:11:28.558Z,15.22
2017-06-13T00:11:42.010Z,15.2
2017-06-13T00:11:55.503Z,15.22
2017-06-13T00:12:08.464Z,15.18
2017-06-13T00:12:21.945Z,15.18
2017-06-13T00:12:35.482Z,15.25
2017-06-13T00:12:48.969Z,15.18
2017-06-13T00:13:02.455Z,15.22
2017-06-13T00:13:15.927Z,15.18
2017-06-13T00:13:28.860Z,15.15
2017-06-13T00:13:42.366Z,15.18
2017-06-13T00:13:55.918Z,15.22
2017-06-13T00:14:09.429Z,15.19
2017-06-13T00:14:22.918Z,15.18
2017-06-13T00:14:36.402Z,15.2
2017-06-13T00:14:49.346Z,15.16
2017-06-13T00:15:04.785Z,15.13
2017-06-13T00:15:18.027Z,15.07
2017-06-13T00:15:31.057Z,15.16
2017-06-13T00:15:44.555Z,15.1
2017-06-13T00:15:57.996Z,15.18
2017-06-13T00:16:11.014Z,15.19
2017-06-13T00:16:24.548Z,15.18
2017-06-13T00:16:38.012Z,15.16
2017-06-13T00:16:51.545Z,15.18
2017-06-13T00:17:05.095Z,15.1
2017-06-13T00:17:18.587Z,15.16
2017-06-13T00:17:31.647Z,15.18
2017-06-13T00:17:45.140Z,15.18
2017-06-13T00:17:58.637Z,15.13
2017-06-13T00:18:11.610Z,15.18
2017-06-13T00:18:25.173Z,15.15
2017-06-13T00:18:38.999Z,15.13
2017-06-13T00:18:51.950Z,15.15
2017-06-13T00:19:05.445Z,15.07
2017-06-13T00:19:18.434Z,15.05
2017-06-13T00:19:31.848Z,15.05
2017-06-13T00:19:45.362Z,15.12
2017-06-13T00:19:58.810Z,15.07
2017-06-13T00:20:12.305Z,15.05
2017-06-13T00:20:25.779Z,15.01
2017-06-13T00:20:39.484Z,15.1
2017-06-13T00:20:53.103Z,15.12
2017-06-13T00:21:06.658Z,15.07
2017-06-13T00:21:19.611Z,15.01
2017-06-13T00:21:32.663Z,15.08
2017-06-13T00:21:46.153Z,15.01
2017-06-13T00:22:00.864Z,15.04
2017-06-13T00:22:13.379Z,15.08
2017-06-13T00:22:27.570Z,15.05
2017-06-13T00:22:41.083Z,15.02
2017-06-13T00:22:54.572Z,15.04
2017-06-13T00:23:08.148Z,15.04
2017-06-13T00:23:22.147Z,15.08
2017-06-13T00:23:35.129Z,15
2017-06-13T00:23:48.682Z,15
2017-06-13T00:24:02.178Z,15.01
2017-06-13T00:24:15.071Z,15.07
2017-06-13T00:24:28.334Z,15.01
2017-06-13T00:24:41.867Z,15.02
2017-06-13T00:24:55.357Z,15.02
2017-06-13T00:25:07.825Z,15.02
2017-06-13T00:25:20.747Z,15.02
2017-06-13T00:25:34.229Z,14.89
2017-06-13T00:25:47.696Z,15.01
2017-06-13T00:26:01.174Z,15
2017-06-13T00:26:14.108Z,15
2017-06-13T00:26:27.317Z,14.9
2017-06-13T00:26:39.820Z,14.93
2017-06-13T00:26:52.887Z,14.95
2017-06-13T00:27:06.399Z,14.94
2017-06-13T00:27:19.433Z,14.86
2017-06-13T00:27:32.947Z,14.9
2017-06-13T00:27:46.482Z,14.87
2017-06-13T00:28:00.038Z,14.95
2017-06-13T00:28:13.546Z,14.8
2017-06-13T00:28:27.040Z,14.8
2017-06-13T00:28:40.581Z,14.8
2017-06-13T00:28:53.837Z,14.77
2017-06-13T00:29:06.831Z,14.77
2017-06-13T00:29:20.330Z,14.77
2017-06-13T00:29:33.338Z,14.82
2017-06-13T00:29:46.785Z,14.71
2017-06-13T00:30:00.319Z,14.74
2017-06-13T00:30:14.769Z,14.7
2017-06-13T00:30:28.426Z,14.69
2017-06-13T00:30:41.932Z,14.71
2017-06-13T00:30:55.416Z,14.7
2017-06-13T00:31:08.965Z,14.71
2017-06-13T00:31:22.438Z,14.71
2017-06-13T00:31:35.430Z,14.7
2017-06-13T00:31:49.009Z,14.75
2017-06-13T00:32:02.520Z,14.66
2017-06-13T00:32:15.988Z,14.64
2017-06-13T00:32:29.482Z,14.64
2017-06-13T00:32:43.018Z,14.6
2017-06-13T00:32:56.549Z,14.59
2017-06-13T00:33:11.516Z,14.63
2017-06-13T00:33:25.037Z,14.64
2017-06-13T00:33:37.992Z,14.61
2017-06-13T00:33:52.285Z,14.59
2017-06-13T00:34:06.595Z,14.57
2017-06-13T00:34:20.148Z,14.6
2017-06-13T00:34:33.712Z,14.53
2017-06-13T00:34:50.990Z,14.53
2017-06-13T00:35:15.491Z,14.64
2017-06-13T00:35:29.828Z,14.57
2017-06-13T00:35:45.093Z,14.59
2017-06-13T00:35:58.603Z,14.57
2017-06-13T00:36:12.113Z,14.63
2017-06-13T00:36:25.140Z,14.57
2017-06-13T00:36:38.216Z,14.61
2017-06-13T00:36:51.714Z,14.6
2017-06-13T00:37:05.214Z,14.6
2017-06-13T00:37:19.535Z,14.61
2017-06-13T00:37:34.971Z,14.57
2017-06-13T00:37:49.251Z,14.61
2017-06-13T00:38:02.207Z,14.64
2017-06-13T00:38:16.700Z,14.63
2017-06-13T00:38:30.388Z,14.63
2017-06-13T00:38:43.281Z,14.63
2017-06-13T00:38:56.575Z,14.64
2017-06-13T00:39:11.264Z,14.61
2017-06-13T00:39:24.833Z,14.63
2017-06-13T00:39:37.372Z,14.44
2017-06-13T00:39:51.060Z,14.61
2017-06-13T00:40:04.585Z,14.57
2017-06-13T00:40:18.118Z,14.51
2017-06-13T00:40:31.129Z,14.41
2017-06-13T00:40:46.049Z,14.46
2017-06-13T00:40:59.566Z,14.44
2017-06-13T00:41:13.132Z,14.48
2017-06-13T00:41:26.744Z,14.42
2017-06-13T00:41:39.713Z,14.44
2017-06-13T00:41:53.295Z,14.39
2017-06-13T00:42:06.813Z,14.42
2017-06-13T00:42:21.015Z,14.42
2017-06-13T00:42:34.475Z,14.39
2017-06-13T00:42:47.941Z,14.34
2017-06-13T00:43:02.579Z,14.36
2017-06-13T00:43:18.475Z,14.24
2017-06-13T00:43:32.190Z,14.31
2017-06-13T00:43:45.739Z,14.28
2017-06-13T00:43:59.322Z,14.26
2017-06-13T00:44:12.591Z,14.28
2017-06-13T00:44:26.138Z,14.21
2017-06-13T00:44:47.070Z,14.21
2017-06-13T00:45:20.523Z,14.21
2017-06-13T00:45:36.141Z,14.15
2017-06-13T00:45:49.625Z,14.13
2017-06-13T00:46:03.906Z,14.11
2017-06-13T00:46:17.412Z,14.11
2017-06-13T00:46:31.148Z,14.12
2017-06-13T00:46:44.898Z,14.03
2017-06-13T00:47:01.524Z,14.02
2017-06-13T00:47:16.646Z,14.02
2017-06-13T00:47:31.660Z,13.99
2017-06-13T00:47:44.179Z,14.08
2017-06-13T00:48:07.939Z,13.93
2017-06-13T00:48:26.988Z,13.88
2017-06-13T00:48:39.936Z,13.97
2017-06-13T00:48:53.442Z,13.97
2017-06-13T00:49:06.428Z,13.99
2017-06-13T00:49:21.574Z,13.91
2017-06-13T00:49:49.767Z,13.93
2017-06-13T00:50:03.290Z,13.93
2017-06-13T00:50:16.593Z,13.87
2017-06-13T00:50:29.534Z,13.88
2017-06-13T00:50:43.051Z,13.83
2017-06-13T00:50:57.959Z,13.79
2017-06-13T00:51:11.392Z,13.84
2017-06-13T00:51:24.889Z,13.79
2017-06-13T00:51:37.803Z,13.83
2017-06-13T00:51:51.256Z,13.76
2017-06-13T00:52:04.822Z,13.7
2017-06-13T00:52:17.771Z,13.72
2017-06-13T00:52:30.692Z,13.78
2017-06-13T00:52:44.191Z,13.73
2017-06-13T00:52:57.697Z,13.68
2017-06-13T00:53:10.689Z,13.65
2017-06-13T00:53:24.409Z,13.66
2017-06-13T00:53:38.097Z,13.68
2017-06-13T00:53:51.627Z,13.7
2017-06-13T00:54:05.060Z,13.63
2017-06-13T00:54:18.557Z,13.66
2017-06-13T00:54:32.083Z,13.66
2017-06-13T00:54:45.577Z,13.66
2017-06-13T00:54:59.148Z,13.63
2017-06-13T00:55:13.464Z,13.69
2017-06-13T00:55:26.994Z,13.58
2017-06-13T00:55:40.455Z,13.68
2017-06-13T00:55:54.284Z,13.63
2017-06-13T00:56:07.808Z,13.66
2017-06-13T00:56:21.330Z,13.62
2017-06-13T00:56:34.769Z,13.69
2017-06-13T00:56:48.275Z,13.68
2017-06-13T00:57:01.727Z,13.72
2017-06-13T00:57:15.282Z,13.57
2017-06-13T00:57:28.793Z,13.57
2017-06-13T00:57:41.822Z,13.54
2017-06-13T00:57:55.349Z,13.57
2017-06-13T00:58:08.769Z,13.54
2017-06-13T00:58:22.275Z,13.57
2017-06-13T00:58:35.241Z,13.57
2017-06-13T00:58:48.224Z,13.58
2017-06-13T00:59:02.248Z,13.57
2017-06-13T00:59:18.559Z,13.57
2017-06-13T00:59:31.538Z,13.6
2017-06-13T00:59:47.030Z,13.54
2017-06-13T01:00:00.533Z,13.6
2017-06-13T01:00:14.088Z,13.6
2017-06-13T01:00:27.602Z,13.5
2017-06-13T01:00:41.213Z,13.53
2017-06-13T01:01:14.966Z,13.62
2017-06-13T01:01:28.484Z,13.53
2017-06-13T01:01:41.989Z,13.6
2017-06-13T01:01:55.713Z,13.53
2017-06-13T01:02:09.840Z,13.53
2017-06-13T01:02:24.136Z,13.57
2017-06-13T01:02:37.629Z,13.55
2017-06-13T01:02:51.234Z,13.51
2017-06-13T01:03:04.830Z,13.57
2017-06-13T01:03:18.398Z,13.54
2017-06-13T01:03:31.473Z,13.6
2017-06-13T01:03:45.016Z,13.57
2017-06-13T01:04:01.124Z,13.57
2017-06-13T01:04:42.630Z,13.51
2017-06-13T01:05:05.852Z,13.54
2017-06-13T01:05:19.514Z,13.55
2017-06-13T01:05:32.948Z,13.57
2017-06-13T01:05:49.544Z,13.53
2017-06-13T01:06:08.101Z,13.6
2017-06-13T01:06:22.511Z,13.57
2017-06-13T01:06:36.046Z,13.54
2017-06-13T01:06:49.550Z,13.65
2017-06-13T01:07:03.046Z,13.51
2017-06-13T01:07:16.019Z,13.65
2017-06-13T01:07:30.258Z,13.54
2017-06-13T01:07:43.224Z,13.53
2017-06-13T01:08:03.229Z,13.51
2017-06-13T01:08:16.247Z,13.5
2017-06-13T01:08:29.792Z,13.57
2017-06-13T01:08:43.504Z,13.58
2017-06-13T01:08:56.924Z,13.48
2017-06-13T01:09:10.433Z,13.48
2017-06-13T01:09:24.558Z,13.45
2017-06-13T01:09:38.329Z,13.5
2017-06-13T01:09:51.260Z,13.4
2017-06-13T01:10:04.256Z,13.51
2017-06-13T01:10:17.721Z,13.45
2017-06-13T01:10:30.683Z,13.47
2017-06-13T01:10:44.205Z,13.47
2017-06-13T01:11:00.284Z,13.45
2017-06-13T01:11:17.338Z,13.54
2017-06-13T01:11:30.798Z,13.51
2017-06-13T01:11:44.262Z,13.48
2017-06-13T01:11:57.199Z,13.4
2017-06-13T01:12:10.772Z,13.45
2017-06-13T01:12:24.286Z,13.5
2017-06-13T01:12:37.188Z,13.45
2017-06-13T01:12:49.703Z,13.44
2017-06-13T01:13:03.405Z,13.44
2017-06-13T01:13:16.912Z,13.51
2017-06-13T01:13:30.416Z,13.58
2017-06-13T01:13:44.719Z,13.47
2017-06-13T01:13:58.148Z,13.42
2017-06-13T01:14:11.996Z,13.42
2017-06-13T01:14:25.492Z,13.53
2017-06-13T01:14:40.051Z,13.48
2017-06-13T01:14:53.534Z,13.45
2017-06-13T01:15:08.359Z,13.42
2017-06-13T01:15:22.090Z,13.45
2017-06-13T01:15:35.628Z,13.4
2017-06-13T01:15:52.977Z,13.42
2017-06-13T01:16:07.019Z,13.37
2017-06-13T01:16:21.441Z,13.47
2017-06-13T01:16:49.325Z,13.45
2017-06-13T01:17:07.374Z,13.44
2017-06-13T01:17:20.868Z,13.45
2017-06-13T01:17:35.229Z,13.4
2017-06-13T01:17:54.401Z,13.51
2017-06-13T01:18:08.170Z,13.51
2017-06-13T01:18:21.377Z,13.53
2017-06-13T01:19:19.784Z,13.55
2017-06-13T01:19:35.561Z,13.44
2017-06-13T01:19:50.266Z,13.55
2017-06-13T01:20:04.952Z,13.51
2017-06-13T01:20:18.424Z,13.57
2017-06-13T01:20:43.467Z,13.58
2017-06-13T01:21:09.974Z,13.6
2017-06-13T01:21:24.711Z,13.58
2017-06-13T01:21:38.184Z,13.58
2017-06-13T01:22:14.174Z,13.58
2017-06-13T01:22:27.648Z,13.57
2017-06-13T01:22:43.366Z,13.55
2017-06-13T01:23:34.048Z,13.68
2017-06-13T01:23:59.693Z,13.54
2017-06-13T01:24:20.462Z,13.65
2017-06-13T01:24:58.110Z,13.57
2017-06-13T01:25:11.860Z,13.58
2017-06-13T01:25:31.833Z,13.65
2017-06-13T01:27:02.697Z,13.54
2017-06-13T01:27:16.235Z,13.54
2017-06-13T01:27:34.741Z,13.68
2017-06-13T01:27:58.093Z,13.54
2017-06-13T01:28:32.861Z,13.57
2017-06-13T01:28:53.035Z,13.53
2017-06-13T01:29:14.623Z,13.53
2017-06-13T01:29:28.144Z,13.6
2017-06-13T01:30:13.651Z,13.55
2017-06-13T01:30:53.537Z,13.5
2017-06-13T01:31:07.008Z,13.54
2017-06-13T01:31:20.487Z,13.47
2017-06-13T01:31:40.521Z,13.48
2017-06-13T01:32:08.893Z,13.53
2017-06-13T01:33:00.012Z,13.53
2017-06-13T01:33:14.217Z,13.44
2017-06-13T01:34:22.848Z,13.42
2017-06-13T01:35:07.680Z,13.44
2017-06-13T01:35:23.205Z,13.47
2017-06-13T01:36:55.260Z,13.35
2017-06-13T01:37:51.976Z,13.36
2017-06-13T01:39:15.909Z,13.44
2017-06-13T01:39:29.531Z,13.39
2017-06-13T01:40:14.442Z,13.36
2017-06-13T01:40:28.113Z,13.39
2017-06-13T01:41:24.852Z,13.37
2017-06-13T01:43:39.077Z,13.27
2017-06-13T01:44:15.854Z,13.19
2017-06-13T01:44:32.606Z,13.24
2017-06-13T01:46:07.445Z,13.13
2017-06-13T01:46:19.899Z,13.16
2017-06-13T01:47:53.379Z,13.13
2017-06-13T01:49:37.285Z,13.24
2017-06-13T01:52:20.397Z,13.13
2017-06-13T01:53:08.055Z,13.13
2017-06-13T01:54:37.234Z,13.14
2017-06-13T01:55:21.763Z,13.1
2017-06-13T01:55:47.715Z,13.2
2017-06-13T01:56:01.128Z,13.13
2017-06-13T01:56:14.071Z,13.14
2017-06-13T01:57:31.385Z,13.11
2017-06-13T01:57:51.061Z,13.09
2017-06-13T01:58:14.773Z,13.09
2017-06-13T01:59:41.844Z,13.06
2017-06-13T02:00:26.733Z,13.07
2017-06-13T02:00:40.189Z,13.09
2017-06-13T02:02:08.224Z,13.07
2017-06-13T02:02:53.640Z,12.99
2017-06-13T02:03:38.597Z,12.99
2017-06-13T02:04:25.759Z,12.96
2017-06-13T02:04:45.535Z,13.02
2017-06-13T02:05:54.176Z,12.98
2017-06-13T02:06:44.872Z,13.1
2017-06-13T02:07:52.049Z,13.09
2017-06-13T02:08:39.710Z,13.16
2017-06-13T02:08:58.039Z,13.13
2017-06-13T02:09:48.689Z,13.07
2017-06-13T02:10:01.599Z,13.1
2017-06-13T02:10:25.327Z,13.09
2017-06-13T02:11:41.653Z,13.09
2017-06-13T02:12:45.642Z,12.98
2017-06-13T02:12:59.101Z,12.96
2017-06-13T02:13:48.783Z,12.94
2017-06-13T02:14:07.269Z,12.99
2017-06-13T02:15:01.837Z,12.86
2017-06-13T02:16:45.307Z,12.94
2017-06-13T02:17:33.294Z,12.96
2017-06-13T02:17:46.241Z,13.01
2017-06-13T02:18:20.774Z,12.98
2017-06-13T02:19:19.115Z,12.95
2017-06-13T02:19:39.077Z,12.98
2017-06-13T02:20:59.001Z,12.99
2017-06-13T02:21:13.233Z,12.99
2017-06-13T02:21:46.696Z,12.95
2017-06-13T02:22:07.226Z,12.99
2017-06-13T02:23:02.630Z,12.86
2017-06-13T02:24:01.422Z,12.88
2017-06-13T02:24:47.367Z,12.92
2017-06-13T02:25:36.879Z,12.91
2017-06-13T02:26:20.758Z,12.83
2017-06-13T02:26:38.095Z,12.83
2017-06-13T02:26:59.597Z,12.84
2017-06-13T02:28:12.770Z,12.84
2017-06-13T02:30:45.717Z,12.89
2017-06-13T02:31:30.369Z,12.84
2017-06-13T02:36:46.121Z,12.74
2017-06-13T02:37:31.920Z,12.74
2017-06-13T02:53:13.431Z,12.47
2017-06-13T02:55:01.774Z,12.45
2017-06-13T02:56:12.298Z,12.45
2017-06-13T02:57:02.200Z,12.37
2017-06-13T02:57:15.742Z,12.36
2017-06-13T02:57:40.264Z,12.45
2017-06-13T02:58:17.596Z,12.47
2017-06-13T02:58:30.194Z,12.44
2017-06-13T02:59:13.899Z,12.41
2017-06-13T02:59:50.500Z,12.47
2017-06-13T03:00:35.625Z,12.41
2017-06-13T03:01:38.303Z,12.45
2017-06-13T03:01:51.864Z,12.45
2017-06-13T03:02:19.474Z,12.44
2017-06-13T03:03:04.047Z,12.4
2017-06-13T03:03:31.343Z,12.4
2017-06-13T03:03:44.824Z,12.45
2017-06-13T03:03:58.465Z,12.45
2017-06-13T03:04:12.137Z,12.44
2017-06-13T03:04:27.581Z,12.38
2017-06-13T03:04:56.034Z,12.38
2017-06-13T03:05:10.337Z,12.45
2017-06-13T03:05:26.209Z,12.44
2017-06-13T03:05:39.718Z,12.44
2017-06-13T03:05:55.430Z,12.52
2017-06-13T03:06:31.590Z,12.48
2017-06-13T03:06:45.340Z,12.55
2017-06-13T03:06:58.890Z,12.55
2017-06-13T03:07:18.892Z,12.56
2017-06-13T03:07:34.406Z,12.45
2017-06-13T03:07:48.007Z,12.51
2017-06-13T03:08:14.904Z,12.55
2017-06-13T03:08:50.264Z,12.47
2017-06-13T03:09:35.097Z,12.48
2017-06-13T03:09:48.615Z,12.56
2017-06-13T03:10:03.921Z,12.58
2017-06-13T03:10:18.888Z,12.61
2017-06-13T03:10:32.371Z,12.58
2017-06-13T03:10:46.927Z,12.61
2017-06-13T03:10:59.948Z,12.62
2017-06-13T03:11:14.677Z,12.61
2017-06-13T03:11:29.725Z,12.62
2017-06-13T03:11:43.307Z,12.63
2017-06-13T03:11:57.037Z,12.66
2017-06-13T03:12:11.313Z,12.65
2017-06-13T03:12:31.095Z,12.63
2017-06-13T03:12:44.570Z,12.66
2017-06-13T03:12:58.075Z,12.65
2017-06-13T03:13:17.827Z,12.65
2017-06-13T03:13:33.038Z,12.7
2017-06-13T03:13:51.632Z,12.62
2017-06-13T03:14:05.220Z,12.66
2017-06-13T03:14:36.318Z,12.69
2017-06-13T03:14:48.694Z,12.65
2017-06-13T03:15:02.442Z,12.7
2017-06-13T03:15:17.592Z,12.63
2017-06-13T03:15:31.253Z,12.66
2017-06-13T03:15:46.386Z,12.63
2017-06-13T03:15:59.859Z,12.66
2017-06-13T03:16:13.427Z,12.65
2017-06-13T03:16:27.007Z,12.62
2017-06-13T03:16:39.442Z,12.63
2017-06-13T03:16:52.924Z,12.61
2017-06-13T03:17:05.875Z,12.7
2017-06-13T03:17:19.356Z,12.69
2017-06-13T03:17:32.307Z,12.61
2017-06-13T03:17:45.831Z,12.63
2017-06-13T03:17:58.837Z,12.69
2017-06-13T03:18:12.259Z,12.69
2017-06-13T03:18:26.213Z,12.69
2017-06-13T03:18:39.176Z,12.65
2017-06-13T03:18:52.827Z,12.66
2017-06-13T03:19:06.339Z,12.61
2017-06-13T03:19:21.056Z,12.61
2017-06-13T03:19:35.240Z,12.71
2017-06-13T03:19:48.762Z,12.69
2017-06-13T03:20:02.284Z,12.63
2017-06-13T03:20:15.866Z,12.7
2017-06-13T03:20:28.933Z,12.7
2017-06-13T03:20:42.088Z,12.62
2017-06-13T03:20:55.031Z,12.66
2017-06-13T03:21:08.430Z,12.66
2017-06-13T03:21:21.371Z,12.66
2017-06-13T03:21:35.086Z,12.61
2017-06-13T03:21:48.581Z,12.69
2017-06-13T03:22:02.006Z,12.61
2017-06-13T03:22:15.472Z,12.65
2017-06-13T03:22:29.626Z,12.62
2017-06-13T03:22:44.199Z,12.63
2017-06-13T03:22:58.894Z,12.63
2017-06-13T03:23:12.896Z,12.66
2017-06-13T03:23:26.400Z,12.7
2017-06-13T03:23:40.054Z,12.62
2017-06-13T03:23:52.965Z,12.69
2017-06-13T03:24:06.537Z,12.69
2017-06-13T03:24:19.952Z,12.63
2017-06-13T03:24:33.369Z,12.65
2017-06-13T03:24:46.285Z,12.63
2017-06-13T03:25:00.309Z,12.66
2017-06-13T03:25:14.632Z,12.66
2017-06-13T03:25:28.218Z,12.65
2017-06-13T03:25:41.668Z,12.65
2017-06-13T03:25:55.911Z,12.66
2017-06-13T03:26:09.431Z,12.59
2017-06-13T03:26:27.631Z,12.63
2017-06-13T03:26:41.140Z,12.65
2017-06-13T03:26:58.462Z,12.63
2017-06-13T03:27:12.177Z,12.61
2017-06-13T03:27:25.085Z,12.62
2017-06-13T03:27:38.600Z,12.58
2017-06-13T03:27:53.622Z,12.58
2017-06-13T03:28:07.132Z,12.58
2017-06-13T03:28:20.837Z,12.59
2017-06-13T03:28:34.392Z,12.56
2017-06-13T03:29:34.609Z,12.52
2017-06-13T03:29:48.831Z,12.47
2017-06-13T03:30:09.872Z,12.58
2017-06-13T03:30:22.824Z,12.52
2017-06-13T03:30:36.412Z,12.47
2017-06-13T03:30:49.909Z,12.47
2017-06-13T03:31:02.930Z,12.45
2017-06-13T03:31:15.889Z,12.44
2017-06-13T03:31:28.785Z,12.45
2017-06-13T03:31:43.071Z,12.44
2017-06-13T03:31:56.570Z,12.4
2017-06-13T03:32:11.770Z,12.43
2017-06-13T03:32:24.774Z,12.48
2017-06-13T03:32:39.058Z,12.38
2017-06-13T03:32:52.770Z,12.45
2017-06-13T03:33:06.286Z,12.43
2017-06-13T03:33:19.800Z,12.47
2017-06-13T03:33:32.296Z,12.41
2017-06-13T03:33:45.795Z,12.48
2017-06-13T03:33:59.273Z,12.51
2017-06-13T03:34:12.739Z,12.36
2017-06-13T03:34:25.683Z,12.47
2017-06-13T03:34:39.135Z,12.48
2017-06-13T03:34:52.569Z,12.38
2017-06-13T03:35:04.978Z,12.52
2017-06-13T03:35:18.462Z,12.44
2017-06-13T03:35:31.906Z,12.47
2017-06-13T03:35:44.850Z,12.47
2017-06-13T03:35:58.560Z,12.48
2017-06-13T03:36:12.159Z,12.45
2017-06-13T03:36:28.893Z,12.36
2017-06-13T03:36:43.606Z,12.43
2017-06-13T03:36:57.114Z,12.44
2017-06-13T03:37:10.015Z,12.38
2017-06-13T03:37:23.496Z,12.41
2017-06-13T03:37:37.048Z,12.41
2017-06-13T03:37:50.521Z,12.41
2017-06-13T03:38:03.906Z,12.34
2017-06-13T03:38:17.421Z,12.4
2017-06-13T03:38:30.908Z,12.41
2017-06-13T03:38:44.670Z,12.37
2017-06-13T03:38:58.116Z,12.38
2017-06-13T03:39:11.578Z,12.4
2017-06-13T03:39:24.528Z,12.37
2017-06-13T03:39:37.442Z,12.26
2017-06-13T03:39:50.854Z,12.26
2017-06-13T03:40:04.361Z,12.4
2017-06-13T03:40:16.812Z,12.4
2017-06-13T03:40:30.321Z,12.33
2017-06-13T03:40:43.792Z,12.28
2017-06-13T03:40:57.295Z,12.29
2017-06-13T03:41:10.775Z,12.26
2017-06-13T03:41:24.181Z,12.4
2017-06-13T03:41:37.598Z,12.28
2017-06-13T03:41:51.103Z,12.37
2017-06-13T03:42:04.632Z,12.25
2017-06-13T03:42:17.583Z,12.36
2017-06-13T03:42:31.082Z,12.34
2017-06-13T03:42:44.577Z,12.28
2017-06-13T03:42:56.980Z,12.23
2017-06-13T03:43:10.479Z,12.23
2017-06-13T03:43:23.416Z,12.28
2017-06-13T03:43:35.810Z,12.28
2017-06-13T03:43:49.252Z,12.28
2017-06-13T03:44:02.701Z,12.23
2017-06-13T03:44:16.195Z,12.26
2017-06-13T03:44:30.477Z,12.29
2017-06-13T03:44:43.468Z,12.25
2017-06-13T03:44:57.027Z,12.23
2017-06-13T03:45:09.970Z,12.29
2017-06-13T03:45:23.403Z,12.29
2017-06-13T03:45:35.771Z,12.23
2017-06-13T03:45:49.217Z,12.26
2017-06-13T03:46:02.712Z,12.2
2017-06-13T03:46:16.158Z,12.22
2017-06-13T03:46:29.591Z,12.26
2017-06-13T03:46:43.078Z,12.28
2017-06-13T03:46:56.555Z,12.19
2017-06-13T03:47:09.517Z,12.31
2017-06-13T03:47:22.985Z,12.31
2017-06-13T03:47:35.928Z,12.33
2017-06-13T03:47:49.410Z,12.31
2017-06-13T03:48:02.865Z,12.26
2017-06-13T03:48:15.808Z,12.31
2017-06-13T03:48:29.258Z,12.28
2017-06-13T03:48:42.695Z,12.28
2017-06-13T03:48:55.582Z,12.25
2017-06-13T03:49:09.005Z,12.26
2017-06-13T03:49:21.930Z,12.23
2017-06-13T03:49:35.443Z,12.31
2017-06-13T03:49:48.911Z,12.23
2017-06-13T03:50:01.859Z,12.28
2017-06-13T03:50:15.370Z,12.23
2017-06-13T03:50:28.772Z,12.29
2017-06-13T03:50:42.227Z,12.28
2017-06-13T03:50:55.176Z,12.29
2017-06-13T03:51:08.679Z,12.28
2017-06-13T03:51:22.132Z,12.36
2017-06-13T03:51:35.109Z,12.28
2017-06-13T03:51:47.560Z,12.37
2017-06-13T03:52:01.100Z,12.4
2017-06-13T03:52:14.558Z,12.29
2017-06-13T03:52:27.510Z,12.29
2017-06-13T03:52:40.964Z,12.37
2017-06-13T03:52:54.451Z,12.37
2017-06-13T03:53:07.910Z,12.28
2017-06-13T03:53:21.368Z,12.33
2017-06-13T03:53:34.291Z,12.34
2017-06-13T03:53:47.761Z,12.36
2017-06-13T03:54:01.562Z,12.37
2017-06-13T03:54:15.035Z,12.29
2017-06-13T03:54:28.528Z,12.28
2017-06-13T03:54:41.449Z,12.41
2017-06-13T03:54:54.882Z,12.43
2017-06-13T03:55:08.308Z,12.4
2017-06-13T03:55:20.748Z,12.38
2017-06-13T03:55:34.278Z,12.43
2017-06-13T03:55:47.163Z,12.36
2017-06-13T03:56:00.653Z,12.4
2017-06-13T03:56:14.117Z,12.36
2017-06-13T03:56:27.101Z,12.41
2017-06-13T03:56:40.086Z,12.37
2017-06-13T03:56:53.572Z,12.4
2017-06-13T03:57:07.051Z,12.37
2017-06-13T03:57:20.578Z,12.36
2017-06-13T03:57:34.009Z,12.33
2017-06-13T03:57:47.485Z,12.37
2017-06-13T03:58:00.972Z,12.37
2017-06-13T03:58:14.426Z,12.4
2017-06-13T03:58:26.841Z,12.41
2017-06-13T03:58:40.285Z,12.4
2017-06-13T03:58:53.165Z,12.4
2017-06-13T03:59:06.597Z,12.43
2017-06-13T03:59:20.044Z,12.36
2017-06-13T03:59:32.956Z,12.4
2017-06-13T03:59:46.392Z,12.38
2017-06-13T03:59:59.905Z,12.38
2017-06-13T04:00:12.858Z,12.4
2017-06-13T04:00:25.819Z,12.44
2017-06-13T04:00:38.819Z,12.4
2017-06-13T04:00:52.257Z,12.41
2017-06-13T04:01:05.744Z,12.37
2017-06-13T04:01:18.685Z,12.38
2017-06-13T04:01:31.606Z,12.41
2017-06-13T04:01:45.102Z,12.37
2017-06-13T04:01:58.542Z,12.38
2017-06-13T04:02:12.000Z,12.38
2017-06-13T04:02:24.977Z,12.37
2017-06-13T04:02:37.355Z,12.4
2017-06-13T04:02:50.771Z,12.37
2017-06-13T04:03:04.254Z,12.38
2017-06-13T04:03:17.739Z,12.36
2017-06-13T04:03:30.712Z,12.4
2017-06-13T04:03:44.165Z,12.4
2017-06-13T04:03:57.555Z,12.4
2017-06-13T04:04:11.192Z,12.29
2017-06-13T04:04:24.635Z,12.37
2017-06-13T04:04:38.091Z,12.34
2017-06-13T04:04:51.554Z,12.28
2017-06-13T04:05:04.965Z,12.29
2017-06-13T04:05:18.489Z,12.34
2017-06-13T04:05:31.987Z,12.23
2017-06-13T04:05:44.915Z,12.29
2017-06-13T04:05:58.408Z,12.23
2017-06-13T04:06:11.317Z,12.34
2017-06-13T04:06:24.806Z,12.25
2017-06-13T04:06:38.272Z,12.25
2017-06-13T04:06:51.763Z,12.31
2017-06-13T04:07:05.277Z,12.28
2017-06-13T04:07:18.219Z,12.2
2017-06-13T04:07:31.707Z,12.23
2017-06-13T04:07:45.144Z,12.23
2017-06-13T04:07:58.617Z,12.26
2017-06-13T04:08:12.080Z,12.25
2017-06-13T04:08:24.513Z,12.31
2017-06-13T04:08:38.031Z,12.26
2017-06-13T04:08:50.457Z,12.4
2017-06-13T04:09:04.312Z,12.29
2017-06-13T04:09:17.747Z,12.37
2017-06-13T04:09:30.683Z,12.4
2017-06-13T04:09:44.159Z,12.36
2017-06-13T04:09:57.643Z,12.37
2017-06-13T04:10:11.106Z,12.25
2017-06-13T04:10:24.534Z,12.38
2017-06-13T04:10:37.977Z,12.4
2017-06-13T04:10:51.464Z,12.4
2017-06-13T04:11:04.900Z,12.37
2017-06-13T04:11:18.397Z,12.36
2017-06-13T04:11:31.916Z,12.36
2017-06-13T04:11:45.419Z,12.41
2017-06-13T04:11:58.855Z,12.45
2017-06-13T04:12:11.807Z,12.41
2017-06-13T04:12:24.677Z,12.38
2017-06-13T04:12:37.637Z,12.44
2017-06-13T04:12:51.126Z,12.4
2017-06-13T04:13:04.549Z,12.38
2017-06-13T04:13:17.998Z,12.48
2017-06-13T04:13:31.492Z,12.43
2017-06-13T04:13:44.947Z,12.45
2017-06-13T04:13:58.440Z,12.38
2017-06-13T04:14:11.347Z,12.43
2017-06-13T04:14:24.847Z,12.45
2017-06-13T04:14:38.303Z,12.43
2017-06-13T04:14:51.704Z,12.45
2017-06-13T04:15:05.155Z,12.44
2017-06-13T04:15:18.084Z,12.48
2017-06-13T04:15:31.552Z,12.48
2017-06-13T04:15:44.996Z,12.61
2017-06-13T04:15:58.446Z,12.51
2017-06-13T04:16:11.941Z,12.44
2017-06-13T04:16:24.887Z,12.51
2017-06-13T04:16:37.846Z,12.48
2017-06-13T04:16:51.256Z,12.55
2017-06-13T04:17:04.723Z,12.48
2017-06-13T04:17:18.313Z,12.53
2017-06-13T04:17:31.808Z,12.47
2017-06-13T04:17:44.723Z,12.47
2017-06-13T04:17:58.217Z,12.45
2017-06-13T04:18:11.684Z,12.59
2017-06-13T04:18:25.186Z,12.53
2017-06-13T04:18:38.649Z,12.52
2017-06-13T04:18:52.147Z,12.53
2017-06-13T04:19:05.606Z,12.56